Time;durP1;ratioP1;P1;durP2;ratioP2;P2;SDS_P1;SDS_P2;PMS_P1;PMS_P2;Temp;Humidity;BMP_temperature;BMP_pressure;BME280_temperature;BME280_humidity;BME280_pressure;Samples;Min_cycle;Max_cycle;Signal;HPM_P1;HPM_P2
2023/11/16 00:00:12;;;;;;;9.50;5.30;;;7.70;99.90;;;;;;5051544;28;20636;-70
2023/11/16 00:02:38;;;;;;;16.73;5.47;;;7.70;99.90;;;;;;5051291;28;20177;-70
2023/11/16 00:05:04;;;;;;;17.77;7.13;;;7.70;99.90;;;;;;5051162;28;20232;-70
2023/11/16 00:07:33;;;;;;;9.03;4.77;;;7.70;99.90;;;;;;5051235;28;20860;-69
2023/11/16 00:09:59;;;;;;;6.17;4.77;;;7.70;99.90;;;;;;5051609;28;20159;-70
2023/11/16 00:12:24;;;;;;;8.93;5.03;;;7.70;99.90;;;;;;5051572;28;20167;-70
2023/11/16 00:14:50;;;;;;;15.43;4.87;;;7.70;99.90;;;;;;5051573;28;20660;-70
2023/11/16 00:17:15;;;;;;;8.50;4.87;;;7.70;99.90;;;;;;5050873;28;20179;-70
2023/11/16 00:19:42;;;;;;;14.07;5.20;;;7.70;99.90;;;;;;5051336;28;20181;-70
2023/11/16 00:22:09;;;;;;;12.87;5.10;;;7.70;99.90;;;;;;5052077;28;20171;-70
2023/11/16 00:24:35;;;;;;;10.83;5.00;;;7.60;99.90;;;;;;5051567;28;20691;-70
2023/11/16 00:27:00;;;;;;;13.07;5.67;;;7.60;99.90;;;;;;5051507;28;20167;-70
2023/11/16 00:29:26;;;;;;;12.73;5.60;;;7.60;99.90;;;;;;5050915;28;20202;-70
2023/11/16 00:31:52;;;;;;;12.03;5.70;;;7.60;99.90;;;;;;5050931;28;20179;-70
2023/11/16 00:34:19;;;;;;;10.77;5.37;;;7.60;99.90;;;;;;5051236;28;20242;-70
2023/11/16 00:36:45;;;;;;;11.33;4.83;;;7.60;99.90;;;;;;5051117;28;20632;-70
2023/11/16 00:39:12;;;;;;;15.53;5.73;;;7.70;99.90;;;;;;5050949;28;20171;-70
2023/11/16 00:41:38;;;;;;;9.73;4.90;;;7.70;99.90;;;;;;5051063;28;20193;-70
2023/11/16 00:44:05;;;;;;;7.43;5.27;;;7.70;99.90;;;;;;5051201;28;20191;-70
2023/11/16 00:46:32;;;;;;;11.37;5.27;;;7.80;99.90;;;;;;5050735;28;20171;-71
2023/11/16 00:48:58;;;;;;;8.50;5.30;;;7.80;99.90;;;;;;5050570;28;20215;-70
2023/11/16 00:51:24;;;;;;;10.23;5.10;;;7.80;99.90;;;;;;5050875;28;20551;-70
2023/11/16 00:53:50;;;;;;;10.50;5.20;;;7.80;99.90;;;;;;5050702;28;20198;-70
2023/11/16 00:56:17;;;;;;;10.33;5.30;;;7.90;99.90;;;;;;5051047;28;20171;-70
2023/11/16 00:58:44;;;;;;;9.73;5.00;;;7.90;99.90;;;;;;5050468;28;20190;-70
2023/11/16 01:01:12;;;;;;;10.20;5.37;;;8.00;99.90;;;;;;5032530;28;20175;-70
2023/11/16 01:03:39;;;;;;;7.90;4.80;;;8.00;56.20;;;;;;5050516;28;20206;-70
2023/11/16 01:06:05;;;;;;;10.40;5.23;;;8.00;13.60;;;;;;5050859;28;20513;-70
2023/11/16 01:08:33;;;;;;;14.57;4.90;;;8.10;1.00;;;;;;5050436;28;20199;-70
2023/11/16 01:11:02;;;;;;;8.27;4.63;;;8.10;1.00;;;;;;5050741;28;20221;-70
2023/11/16 01:13:38;;;;;;;8.50;5.50;;;8.20;1.00;;;;;;5051107;28;20214;-70
2023/11/16 01:16:12;;;;;;;7.23;4.80;;;8.20;1.00;;;;;;5054566;28;20177;-70
2023/11/16 01:18:46;;;;;;;13.30;5.53;;;8.30;1.00;;;;;;5054480;28;20304;-70
2023/11/16 01:21:12;;;;;;;6.40;4.50;;;8.30;1.00;;;;;;5054278;28;20309;-70
2023/11/16 01:23:39;;;;;;;10.63;4.57;;;8.40;1.00;;;;;;5054158;28;20272;-69
2023/11/16 01:26:13;;;;;;;11.17;4.80;;;8.40;1.00;;;;;;5054620;28;20175;-70
2023/11/16 01:28:45;;;;;;;9.03;4.70;;;8.40;1.00;;;;;;5054038;28;20575;-69
2023/11/16 01:31:12;;;;;;;7.33;4.77;;;8.50;1.00;;;;;;5054358;28;20671;-69
2023/11/16 01:33:38;;;;;;;11.20;4.60;;;8.50;1.00;;;;;;5054065;28;20191;-69
2023/11/16 01:36:04;;;;;;;8.37;4.77;;;8.50;1.00;;;;;;5054224;28;20178;-70
2023/11/16 01:38:31;;;;;;;8.97;5.03;;;8.50;1.00;;;;;;5054008;28;20178;-69
2023/11/16 01:40:57;;;;;;;9.87;4.97;;;8.50;1.00;;;;;;5054075;28;20178;-69
2023/11/16 01:43:23;;;;;;;7.30;4.77;;;8.50;1.00;;;;;;5053917;28;20675;-69
2023/11/16 01:45:49;;;;;;;7.63;4.67;;;8.60;1.00;;;;;;5053778;28;20182;-70
2023/11/16 01:48:22;;;;;;;13.43;4.80;;;8.60;99.90;;;;;;5053619;28;20698;-70
2023/11/16 01:50:48;;;;;;;11.27;4.97;;;8.60;99.90;;;;;;5035885;28;20228;-70
2023/11/16 01:53:14;;;;;;;12.73;4.97;;;8.60;1.00;;;;;;5053690;28;20175;-69
2023/11/16 01:55:44;;;;;;;15.30;4.73;;;8.60;99.90;;;;;;5053574;28;20175;-70
2023/11/16 01:58:11;;;;;;;12.97;4.80;;;8.60;99.90;;;;;;5053419;28;20187;-69
2023/11/16 02:00:42;;;;;;;8.80;4.70;;;8.60;99.90;;;;;;5053418;28;20186;-69
2023/11/16 02:03:08;;;;;;;12.90;4.47;;;8.50;1.00;;;;;;5053682;28;20556;-69
2023/11/16 02:05:36;;;;;;;12.57;4.87;;;8.60;1.00;;;;;;5054250;28;20182;-69
2023/11/16 02:08:04;;;;;;;10.07;4.33;;;8.60;1.00;;;;;;5053924;28;20363;-70
2023/11/16 02:10:30;;;;;;;9.83;4.93;;;8.60;1.00;;;;;;5053588;28;20159;-69
2023/11/16 02:13:00;;;;;;;6.30;4.57;;;8.60;1.00;;;;;;5053420;28;20254;-69
2023/11/16 02:15:32;;;;;;;6.40;4.10;;;8.60;1.00;;;;;;5053173;28;20178;-70
2023/11/16 02:17:59;;;;;;;5.80;4.17;;;8.60;1.00;;;;;;5053088;28;20187;-70
2023/11/16 02:20:26;;;;;;;8.90;4.60;;;8.60;1.00;;;;;;5053402;28;20171;-69
2023/11/16 02:22:54;;;;;;;6.80;4.60;;;8.70;1.00;;;;;;5053415;28;20530;-70
2023/11/16 02:25:26;;;;;;;6.87;4.10;;;8.60;99.90;;;;;;5053018;28;20241;-70
2023/11/16 02:27:53;;;;;;;10.13;5.07;;;8.60;1.00;;;;;;5052837;28;20682;-70
2023/11/16 02:30:19;;;;;;;8.27;4.70;;;8.60;1.00;;;;;;5053070;28;20167;-70
2023/11/16 02:32:45;;;;;;;7.90;4.40;;;8.60;1.00;;;;;;5053113;28;20715;-69
2023/11/16 02:35:12;;;;;;;8.80;4.40;;;8.60;1.00;;;;;;5052935;28;20325;-70
2023/11/16 02:37:37;;;;;;;7.87;4.40;;;8.60;1.00;;;;;;5052708;28;20221;-71
2023/11/16 02:40:05;;;;;;;10.63;4.40;;;8.70;1.00;;;;;;5053301;28;20174;-70
2023/11/16 02:42:31;;;;;;;8.30;4.63;;;8.70;1.00;;;;;;5052881;28;20217;-70
2023/11/16 02:44:57;;;;;;;8.73;4.60;;;8.80;1.00;;;;;;5052905;28;20191;-70
2023/11/16 02:47:28;;;;;;;10.53;4.90;;;8.80;1.00;;;;;;5052592;28;20178;-71
2023/11/16 02:49:54;;;;;;;7.13;4.83;;;8.80;1.00;;;;;;5052902;28;20195;-70
2023/11/16 02:52:19;;;;;;;9.77;4.90;;;8.80;1.00;;;;;;5052991;28;20697;-70
2023/11/16 02:54:47;;;;;;;6.90;5.00;;;8.70;1.00;;;;;;5051868;28;20281;-70
2023/11/16 02:57:13;;;;;;;13.03;4.87;;;8.80;1.00;;;;;;5052373;28;20182;-70
2023/11/16 02:59:39;;;;;;;8.37;5.27;;;8.80;1.00;;;;;;5052401;28;20171;-70
2023/11/16 03:02:07;;;;;;;9.27;5.20;;;8.80;1.00;;;;;;5052773;28;20171;-70
2023/11/16 03:04:35;;;;;;;7.67;4.50;;;8.70;1.00;;;;;;5052629;28;20190;-70
2023/11/16 03:07:01;;;;;;;6.50;4.43;;;8.80;1.00;;;;;;5052691;28;20171;-71
2023/11/16 03:09:26;;;;;;;9.83;4.53;;;8.70;1.00;;;;;;5052317;28;20195;-71
2023/11/16 03:11:52;;;;;;;8.43;5.00;;;8.70;1.00;;;;;;5052157;28;20175;-70
2023/11/16 03:14:19;;;;;;;8.20;4.57;;;8.70;1.00;;;;;;5052593;28;20694;-70
2023/11/16 03:16:55;;;;;;;9.40;4.70;;;8.70;1.00;;;;;;5052560;28;20171;-70
2023/11/16 03:19:25;;;;;;;9.07;4.77;;;8.60;1.00;;;;;;5052361;28;20193;-70
2023/11/16 03:21:52;;;;;;;12.83;4.80;;;8.60;1.00;;;;;;5052424;28;20309;-70
2023/11/16 03:24:17;;;;;;;8.10;4.40;;;8.60;1.00;;;;;;5052529;28;20194;-70
2023/11/16 03:26:44;;;;;;;11.37;5.50;;;8.60;1.00;;;;;;5051918;28;20253;-70
2023/11/16 03:29:09;;;;;;;11.37;4.80;;;8.50;1.00;;;;;;5052070;28;20563;-70
2023/11/16 03:31:35;;;;;;;10.77;5.10;;;8.50;1.00;;;;;;5052151;28;20167;-70
2023/11/16 03:34:06;;;;;;;5.67;4.30;;;8.50;1.00;;;;;;5052181;28;20269;-70
2023/11/16 03:36:32;;;;;;;7.10;4.90;;;8.40;1.00;;;;;;5051915;28;20270;-71
2023/11/16 03:38:58;;;;;;;9.43;4.53;;;8.40;1.00;;;;;;5051980;28;20202;-69
2023/11/16 03:41:24;;;;;;;11.33;5.40;;;8.40;1.00;;;;;;5052069;28;20182;-69
2023/11/16 03:43:49;;;;;;;12.90;4.63;;;8.40;1.00;;;;;;5051958;28;20661;-70
2023/11/16 03:46:15;;;;;;;9.57;4.90;;;8.30;1.00;;;;;;5052219;28;20183;-70
2023/11/16 03:48:41;;;;;;;8.87;4.23;;;8.30;1.00;;;;;;5051254;28;20202;-69
2023/11/16 03:51:07;;;;;;;8.63;4.70;;;8.30;14.90;;;;;;5052163;28;20171;-70
2023/11/16 03:53:33;;;;;;;13.33;4.90;;;8.20;19.00;;;;;;5051495;28;20225;-69
2023/11/16 03:55:59;;;;;;;7.50;4.53;;;8.20;34.50;;;;;;5051812;28;20171;-70
2023/11/16 03:58:28;;;;;;;10.20;4.70;;;8.20;52.50;;;;;;5051777;28;20536;-70
2023/11/16 04:00:54;;;;;;;11.50;4.67;;;8.20;63.70;;;;;;5051677;28;20200;-69
2023/11/16 04:03:22;;;;;;;5.87;4.60;;;8.10;67.30;;;;;;5051763;28;20771;-70
2023/11/16 04:05:48;;;;;;;7.70;5.07;;;8.10;79.50;;;;;;5051180;28;20204;-69
2023/11/16 04:08:14;;;;;;;14.10;6.00;;;8.00;99.90;;;;;;5051188;28;20207;-69
2023/11/16 04:10:40;;;;;;;9.73;5.53;;;8.00;99.90;;;;;;5051615;28;20167;-69
2023/11/16 04:13:06;;;;;;;14.77;5.43;;;8.00;99.90;;;;;;5051475;28;20179;-69
2023/11/16 04:15:31;;;;;;;6.57;5.03;;;8.00;99.90;;;;;;5051589;28;20521;-70
2023/11/16 04:17:57;;;;;;;10.00;5.47;;;8.00;99.90;;;;;;5051236;28;20177;-70
2023/11/16 04:20:26;;;;;;;11.03;5.20;;;8.00;99.90;;;;;;5051607;28;20206;-70
2023/11/16 04:22:53;;;;;;;7.10;5.50;;;8.00;99.90;;;;;;5051169;28;20178;-69
2023/11/16 04:25:22;;;;;;;8.37;4.60;;;7.90;99.90;;;;;;5051540;28;20218;-69
2023/11/16 04:27:49;;;;;;;9.67;5.13;;;7.80;99.90;;;;;;5051007;28;20699;-70
2023/11/16 04:30:16;;;;;;;9.80;6.53;;;7.80;99.90;;;;;;5051641;28;20166;-69
2023/11/16 04:32:45;;;;;;;7.97;4.83;;;7.70;99.90;;;;;;5051505;28;20233;-69
2023/11/16 04:35:10;;;;;;;10.77;5.43;;;7.70;99.90;;;;;;5051353;28;20289;-69
2023/11/16 04:37:39;;;;;;;12.60;6.10;;;7.60;99.90;;;;;;5051028;28;20250;-70
2023/11/16 04:40:09;;;;;;;5.97;4.83;;;7.60;99.90;;;;;;5051285;28;20171;-69
2023/11/16 04:42:35;;;;;;;7.33;4.90;;;7.60;99.90;;;;;;5051355;28;20537;-69
2023/11/16 04:45:05;;;;;;;9.07;5.17;;;7.50;99.90;;;;;;5051255;28;20771;-69
2023/11/16 04:47:31;;;;;;;10.90;4.70;;;7.50;99.90;;;;;;5051258;28;20163;-69
2023/11/16 04:49:57;;;;;;;9.77;5.40;;;7.50;99.90;;;;;;5054470;28;20170;-69
2023/11/16 04:52:23;;;;;;;12.50;5.90;;;7.50;99.90;;;;;;5055528;28;20167;-69
2023/11/16 04:54:50;;;;;;;5.83;5.10;;;7.50;99.90;;;;;;5055060;28;20190;-68
2023/11/16 04:57:15;;;;;;;5.40;4.90;;;7.50;99.90;;;;;;5055099;28;20187;-70
2023/11/16 04:59:43;;;;;;;10.30;5.73;;;7.50;99.90;;;;;;5054856;28;20174;-70
2023/11/16 05:02:08;;;;;;;11.80;5.27;;;7.50;99.90;;;;;;5055517;28;20179;-69
2023/11/16 05:04:34;;;;;;;11.87;5.87;;;7.50;99.90;;;;;;5055164;28;20569;-70
2023/11/16 05:06:59;;;;;;;12.67;5.80;;;7.50;99.90;;;;;;5054995;28;20289;-70
2023/11/16 05:09:26;;;;;;;12.23;5.93;;;7.50;99.90;;;;;;5054901;28;20202;-71
2023/11/16 05:11:54;;;;;;;10.53;5.67;;;7.50;99.90;;;;;;5054717;28;20163;-69
2023/11/16 05:14:20;;;;;;;14.73;5.50;;;7.50;99.90;;;;;;5055098;28;20249;-69
2023/11/16 05:16:46;;;;;;;14.00;5.57;;;7.50;99.90;;;;;;5054885;28;20663;-69
2023/11/16 05:19:12;;;;;;;13.13;6.07;;;7.50;99.90;;;;;;5054829;28;20175;-69
2023/11/16 05:21:37;;;;;;;12.87;5.57;;;7.50;99.90;;;;;;5054730;28;20189;-69
2023/11/16 05:24:03;;;;;;;8.70;5.53;;;7.60;99.90;;;;;;5054527;28;20198;-69
2023/11/16 05:26:30;;;;;;;9.93;6.03;;;7.60;99.90;;;;;;5055252;28;20175;-69
2023/11/16 05:28:56;;;;;;;12.67;5.50;;;7.60;99.90;;;;;;5054538;28;20194;-69
2023/11/16 05:31:21;;;;;;;16.80;5.90;;;7.60;99.90;;;;;;5054389;28;20709;-70
2023/11/16 05:33:47;;;;;;;12.13;5.50;;;7.70;99.90;;;;;;5054344;28;20752;-70
2023/11/16 05:36:13;;;;;;;9.33;5.60;;;7.70;99.90;;;;;;5054586;28;20174;-70
2023/11/16 05:38:38;;;;;;;12.80;5.67;;;7.70;99.90;;;;;;5054352;28;20173;-69
2023/11/16 05:41:04;;;;;;;8.53;5.70;;;7.80;99.90;;;;;;5053993;28;20651;-74
2023/11/16 05:43:30;;;;;;;9.67;5.83;;;7.80;99.90;;;;;;5054173;28;20199;-69
2023/11/16 05:45:56;;;;;;;9.53;5.83;;;7.80;99.90;;;;;;5054060;28;20186;-70
2023/11/16 05:48:22;;;;;;;11.03;6.03;;;7.90;99.90;;;;;;5054056;28;20202;-69
2023/11/16 05:50:47;;;;;;;11.97;5.67;;;7.90;99.90;;;;;;5054258;28;20175;-71
2023/11/16 05:53:13;;;;;;;9.23;5.67;;;7.90;99.90;;;;;;5053845;28;20655;-70
2023/11/16 05:55:39;;;;;;;8.27;5.10;;;7.90;99.90;;;;;;5053987;28;20213;-70
2023/11/16 05:58:07;;;;;;;10.87;5.43;;;7.90;99.90;;;;;;5053553;28;20187;-70
2023/11/16 06:00:36;;;;;;;11.63;5.87;;;7.90;99.90;;;;;;5053635;28;20171;-69
2023/11/16 06:03:02;;;;;;;7.53;4.80;;;7.90;99.90;;;;;;5053870;28;20551;-70
2023/11/16 06:05:28;;;;;;;12.20;5.73;;;7.90;99.90;;;;;;5054463;28;20174;-69
2023/11/16 06:07:55;;;;;;;10.13;5.30;;;7.90;99.90;;;;;;5053288;28;20297;-69
2023/11/16 06:10:21;;;;;;;6.53;5.40;;;7.90;99.90;;;;;;5094473;23;20312;-68
2023/11/16 06:12:46;;;;;;;10.27;4.90;;;7.90;99.90;;;;;;5073369;28;20170;-69
2023/11/16 06:15:14;;;;;;;11.60;5.57;;;7.90;99.90;;;;;;5073447;28;20258;-70
2023/11/16 06:17:42;;;;;;;7.57;5.10;;;7.90;99.90;;;;;;5073182;28;20674;-69
2023/11/16 06:20:10;;;;;;;9.60;5.43;;;8.00;99.90;;;;;;5065262;28;20293;-69
2023/11/16 06:22:40;;;;;;;8.07;5.23;;;8.00;99.90;;;;;;5053423;28;20205;-70
2023/11/16 06:25:10;;;;;;;6.53;5.13;;;8.00;99.90;;;;;;5053257;28;20170;-69
2023/11/16 06:27:37;;;;;;;9.00;5.50;;;8.00;99.90;;;;;;5052887;28;20179;-69
2023/11/16 06:30:03;;;;;;;8.83;5.83;;;8.00;99.90;;;;;;5053174;28;20210;-69
2023/11/16 06:32:29;;;;;;;11.17;5.27;;;8.10;94.60;;;;;;5053434;28;20170;-69
2023/11/16 06:34:54;;;;;;;8.67;4.87;;;8.10;60.10;;;;;;5053379;28;20184;-71
2023/11/16 06:37:20;;;;;;;7.17;4.90;;;8.20;50.20;;;;;;5053185;28;20743;-69
2023/11/16 06:39:46;;;;;;;7.63;4.90;;;8.20;28.50;;;;;;5052921;28;20203;-69
2023/11/16 06:42:11;;;;;;;9.03;4.53;;;8.30;4.50;;;;;;5052966;28;20210;-70
2023/11/16 06:44:37;;;;;;;6.17;4.90;;;8.30;10.00;;;;;;5052711;28;20228;-71
2023/11/16 06:47:03;;;;;;;6.47;4.37;;;8.30;1.00;;;;;;5052421;28;20178;-71
2023/11/16 06:49:28;;;;;;;13.00;5.10;;;8.30;1.00;;;;;;5052299;28;20210;-71
2023/11/16 06:51:54;;;;;;;8.87;5.10;;;8.30;1.00;;;;;;5052284;28;20182;-70
2023/11/16 06:54:21;;;;;;;11.87;5.50;;;8.30;1.00;;;;;;5052450;28;20174;-71
2023/11/16 06:56:49;;;;;;;15.20;7.50;;;8.30;1.00;;;;;;5052229;28;20174;-70
2023/11/16 06:59:19;;;;;;;10.90;6.87;;;8.40;1.00;;;;;;5052192;28;20186;-71
2023/11/16 07:01:47;;;;;;;15.13;7.23;;;8.30;1.00;;;;;;5052121;28;20176;-71
2023/11/16 07:04:16;;;;;;;13.30;6.83;;;8.30;14.50;;;;;;5051927;28;20220;-71
2023/11/16 07:06:42;;;;;;;11.07;6.30;;;8.30;13.90;;;;;;5052004;28;20182;-71
2023/11/16 07:09:11;;;;;;;9.40;5.40;;;8.20;20.80;;;;;;5051151;28;20202;-71
2023/11/16 07:11:38;;;;;;;9.40;5.60;;;8.30;33.70;;;;;;5050930;28;20179;-71
2023/11/16 07:14:04;;;;;;;12.77;5.80;;;8.20;35.10;;;;;;5051766;28;20224;-71
2023/11/16 07:16:30;;;;;;;11.83;5.50;;;8.20;52.70;;;;;;5051878;28;20171;-71
2023/11/16 07:18:57;;;;;;;12.90;6.30;;;8.20;62.80;;;;;;5051255;28;20197;-71
2023/11/16 07:21:23;;;;;;;14.47;6.87;;;8.20;91.90;;;;;;5051980;28;20519;-70
2023/11/16 07:23:48;;;;;;;17.03;6.60;;;8.30;88.10;;;;;;5051113;28;20179;-71
2023/11/16 07:26:18;;;;;;;12.33;6.10;;;8.30;93.90;;;;;;5051696;28;20182;-71
2023/11/16 07:28:45;;;;;;;11.63;5.90;;;8.30;97.60;;;;;;5051448;28;20249;-71
2023/11/16 07:31:16;;;;;;;12.40;5.37;;;8.30;99.90;;;;;;5049814;28;20647;-71
2023/11/16 07:33:41;;;;;;;16.57;5.13;;;8.30;96.50;;;;;;5051039;28;20685;-69
2023/11/16 07:36:07;;;;;;;16.00;6.63;;;8.40;97.10;;;;;;5050741;28;20182;-69
2023/11/16 07:38:33;;;;;;;12.73;8.10;;;8.40;71.40;;;;;;5051140;28;20171;-69
2023/11/16 07:40:59;;;;;;;17.33;6.80;;;8.40;75.90;;;;;;5050792;28;20721;-69
2023/11/16 07:43:24;;;;;;;14.77;6.13;;;8.40;95.50;;;;;;5051455;28;20175;-70
2023/11/16 07:45:50;;;;;;;17.20;6.37;;;8.40;99.90;;;;;;5051100;28;20179;-71
2023/11/16 07:48:17;;;;;;;17.27;12.93;;;8.40;97.50;;;;;;5050556;28;20230;-69
2023/11/16 07:50:42;;;;;;;8.40;6.50;;;8.50;92.50;;;;;;5050682;28;20256;-69
2023/11/16 07:53:10;;;;;;;9.63;6.00;;;8.60;99.90;;;;;;5051240;28;20623;-69
2023/11/16 07:55:37;;;;;;;7.30;5.47;;;8.60;99.90;;;;;;5051040;28;20163;-69
2023/11/16 07:58:03;;;;;;;12.43;6.27;;;8.80;99.90;;;;;;5050626;28;20266;-70
2023/11/16 08:00:34;;;;;;;12.47;6.80;;;8.90;99.90;;;;;;5050920;28;20197;-70
2023/11/16 08:05:48;;;;;;;11.90;5.47;;;9.00;73.20;;;;;;5051029;28;20205;-69
2023/11/16 08:08:15;;;;;;;8.00;5.10;;;9.10;21.60;;;;;;5050442;28;20194;-69
2023/11/16 08:10:44;;;;;;;7.47;4.73;;;9.10;1.00;;;;;;5050867;28;20198;-70
2023/11/16 08:13:11;;;;;;;10.87;5.80;;;9.10;1.00;;;;;;5050805;28;20166;-70
2023/11/16 08:15:40;;;;;;;9.50;5.37;;;9.10;1.00;;;;;;5050718;28;20289;-69
2023/11/16 08:18:07;;;;;;;9.87;5.43;;;9.20;1.00;;;;;;5049759;28;20189;-69
2023/11/16 08:20:32;;;;;;;7.60;5.23;;;9.30;1.00;;;;;;5050901;28;20252;-69
2023/11/16 08:22:58;;;;;;;11.07;4.63;;;9.30;1.00;;;;;;5050482;28;20175;-69
2023/11/16 08:25:28;;;;;;;7.53;4.70;;;9.30;1.00;;;;;;5050639;28;20219;-69
2023/11/16 08:27:55;;;;;;;8.27;5.53;;;9.30;1.00;;;;;;5050082;28;20620;-70
2023/11/16 08:30:25;;;;;;;5.47;4.47;;;9.30;1.00;;;;;;5050183;28;20241;-70
2023/11/16 08:32:51;;;;;;;6.57;5.33;;;9.30;99.90;;;;;;5050252;28;20655;-70
2023/11/16 08:35:23;;;;;;;6.37;4.80;;;9.30;1.00;;;;;;5050279;28;20167;-70
2023/11/16 08:37:49;;;;;;;6.90;4.60;;;9.40;1.00;;;;;;5050484;28;20247;-70
2023/11/16 08:40:18;;;;;;;8.73;4.87;;;9.50;1.00;;;;;;5050367;28;20293;-69
2023/11/16 08:42:47;;;;;;;5.30;4.60;;;9.60;99.90;;;;;;5049785;28;20179;-70
2023/11/16 08:45:18;;;;;;;10.87;5.20;;;9.60;99.90;;;;;;5050292;28;20540;-70
2023/11/16 08:47:48;;;;;;;9.70;4.50;;;9.70;99.90;;;;;;5049590;28;20183;-71
2023/11/16 08:50:17;;;;;;;5.73;4.63;;;9.80;99.90;;;;;;5049942;28;20286;-70
2023/11/16 08:52:47;;;;;;;6.50;4.47;;;9.90;1.00;;;;;;5032616;28;20262;-69
2023/11/16 08:55:25;;;;;;;6.47;5.07;;;9.90;1.00;;;;;;5050187;28;20510;-69
2023/11/16 08:57:50;;;;;;;6.50;5.30;;;10.10;77.30;;;;;;5049812;28;20517;-70
2023/11/16 09:00:36;;;;;;;5.40;4.83;;;10.50;99.90;;;;;;5049898;28;20260;-70
2023/11/16 09:03:04;;;;;;;13.17;5.20;;;11.00;99.90;;;;;;5050392;28;20182;-70
2023/11/16 09:05:35;;;;;;;8.57;4.20;;;11.50;1.00;;;;;;5050272;28;20309;-71
2023/11/16 09:08:01;;;;;;;6.07;3.73;;;11.90;99.90;;;;;;5049395;28;20749;-69
2023/11/16 09:10:34;;;;;;;4.43;3.87;;;12.10;1.00;;;;;;5050134;28;20683;-70
2023/11/16 09:13:00;;;;;;;8.57;4.67;;;12.00;1.00;;;;;;5050261;28;20181;-69
2023/11/16 09:15:26;;;;;;;5.47;4.20;;;11.80;1.00;;;;;;5050222;28;20175;-71
2023/11/16 09:17:52;;;;;;;7.20;4.13;;;11.70;1.00;;;;;;5049868;28;20170;-69
2023/11/16 09:20:19;;;;;;;6.97;4.47;;;11.40;1.00;;;;;;5050009;28;20292;-70
2023/11/16 09:22:48;;;;;;;5.53;4.40;;;11.20;1.00;;;;;;5049848;28;20186;-69
2023/11/16 09:25:19;;;;;;;5.77;4.47;;;11.10;1.00;;;;;;5046105;28;20185;-69
2023/11/16 09:27:50;;;;;;;7.70;4.60;;;11.20;5.90;;;;;;5049861;28;20250;-70
2023/11/16 09:30:17;;;;;;;9.23;4.60;;;11.20;83.80;;;;;;5036136;28;20199;-70
2023/11/16 09:32:43;;;;;;;9.47;4.47;;;11.20;99.90;;;;;;5029617;28;20539;-70
2023/11/16 09:35:14;;;;;;;6.30;4.10;;;11.20;1.00;;;;;;5031429;28;20172;-70
2023/11/16 09:37:44;;;;;;;6.73;4.47;;;11.20;1.00;;;;;;5051737;28;20178;-70
2023/11/16 09:40:13;;;;;;;12.33;5.10;;;11.30;13.00;;;;;;5053310;28;20199;-70
2023/11/16 09:42:43;;;;;;;11.77;5.40;;;11.40;1.00;;;;;;5053833;28;20213;-70
2023/11/16 09:45:09;;;;;;;9.60;5.17;;;11.40;1.00;;;;;;5053486;28;20546;-71
2023/11/16 09:47:42;;;;;;;8.50;5.07;;;11.30;1.00;;;;;;5035247;28;20167;-70
2023/11/16 09:50:08;;;;;;;8.27;4.37;;;11.10;1.00;;;;;;5052497;28;20198;-72
2023/11/16 09:52:39;;;;;;;8.30;4.97;;;11.10;3.20;;;;;;5053399;28;20635;-72
2023/11/16 09:55:09;;;;;;;11.73;4.83;;;11.10;12.60;;;;;;5053806;28;20162;-72
2023/11/16 09:57:40;;;;;;;10.83;4.97;;;11.00;16.60;;;;;;5053679;28;20171;-72
2023/11/16 10:00:25;;;;;;;11.70;6.33;;;11.00;1.00;;;;;;5034812;28;20207;-72
2023/11/16 10:02:55;;;;;;;7.80;5.40;;;10.80;1.00;;;;;;5053282;28;20186;-71
2023/11/16 10:05:36;;;;;;;8.10;5.10;;;10.70;23.70;;;;;;5051327;28;20540;-72
2023/11/16 10:08:08;;;;;;;10.23;5.60;;;10.60;99.90;;;;;;5032516;28;20272;-72
2023/11/16 10:10:35;;;;;;;11.53;5.60;;;10.60;99.90;;;;;;5032902;28;20680;-72
2023/11/16 10:13:03;;;;;;;7.50;6.77;;;10.50;99.90;;;;;;5033003;28;20617;-72
2023/11/16 10:15:30;;;;;;;12.27;5.33;;;10.50;99.90;;;;;;5032989;28;20175;-72
2023/11/16 10:17:55;;;;;;;10.60;5.60;;;10.40;99.90;;;;;;5037849;28;20177;-72
2023/11/16 10:20:23;;;;;;;7.07;5.03;;;10.20;99.90;;;;;;5052783;28;20202;-72
2023/11/16 10:22:52;;;;;;;10.67;6.47;;;10.00;99.90;;;;;;5053137;28;20684;-73
2023/11/16 10:25:17;;;;;;;10.63;5.40;;;10.00;1.00;;;;;;5052536;28;20182;-72
2023/11/16 10:27:44;;;;;;;9.93;5.50;;;9.80;1.00;;;;;;5051716;28;20170;-72
2023/11/16 10:30:15;;;;;;;8.63;5.47;;;9.70;1.00;;;;;;5051860;28;20591;-71
2023/11/16 10:32:42;;;;;;;8.47;5.40;;;9.80;99.90;;;;;;5051825;28;20636;-72
2023/11/16 10:35:13;;;;;;;9.03;6.43;;;9.80;99.90;;;;;;5051910;28;20175;-71
2023/11/16 10:37:41;;;;;;;8.43;6.47;;;9.80;99.90;;;;;;5051582;28;20535;-71
2023/11/16 10:40:10;;;;;;;10.10;6.00;;;9.80;99.90;;;;;;5051242;28;20257;-71
2023/11/16 10:42:43;;;;;;;10.30;6.23;;;9.80;99.90;;;;;;5051789;28;20261;-71
2023/11/16 10:45:13;;;;;;;10.57;5.80;;;9.90;99.90;;;;;;5031565;28;20172;-72
2023/11/16 10:47:42;;;;;;;8.20;6.20;;;9.90;99.90;;;;;;5030531;28;20172;-72
2023/11/16 10:50:10;;;;;;;13.90;6.30;;;10.00;99.90;;;;;;5031991;28;20222;-71
2023/11/16 10:52:38;;;;;;;9.23;7.77;;;10.00;98.80;;;;;;5032326;28;20195;-71
2023/11/16 10:55:13;;;;;;;13.80;7.13;;;10.00;99.90;;;;;;5032527;28;20164;-71
2023/11/16 10:57:40;;;;;;;11.70;6.73;;;10.10;62.70;;;;;;5020661;28;20224;-71
2023/11/16 11:00:16;;;;;;;9.07;6.23;;;10.20;34.00;;;;;;5051758;28;20195;-71
2023/11/16 11:02:44;;;;;;;11.47;5.97;;;10.20;99.90;;;;;;5052293;28;20565;-72
2023/11/16 11:05:11;;;;;;;11.00;5.77;;;10.20;99.90;;;;;;5051804;28;20163;-72
2023/11/16 11:07:47;;;;;;;14.00;6.97;;;10.20;1.00;;;;;;5052096;28;20175;-72
2023/11/16 11:10:14;;;;;;;11.07;6.20;;;10.10;1.00;;;;;;5033653;28;20256;-73
2023/11/16 11:12:44;;;;;;;15.77;6.53;;;10.10;85.60;;;;;;5051934;28;20256;-73
2023/11/16 11:15:14;;;;;;;10.00;6.93;;;10.10;1.00;;;;;;5052315;28;20308;-72
2023/11/16 11:17:43;;;;;;;13.20;6.90;;;10.00;99.90;;;;;;5051992;28;20625;-72
2023/11/16 11:20:10;;;;;;;9.63;6.50;;;9.90;26.80;;;;;;5051660;28;20190;-72
2023/11/16 11:22:36;;;;;;;8.30;6.43;;;9.90;99.90;;;;;;5052029;28;20258;-72
2023/11/16 11:25:06;;;;;;;11.77;8.10;;;9.80;1.00;;;;;;5034070;28;20182;-72
2023/11/16 11:27:31;;;;;;;10.33;6.50;;;9.80;1.00;;;;;;5051599;28;20278;-72
2023/11/16 11:30:09;;;;;;;12.50;6.40;;;9.80;1.00;;;;;;5051692;28;20604;-71
2023/11/16 11:32:41;;;;;;;7.57;5.97;;;9.80;1.00;;;;;;5051519;28;20365;-72
2023/11/16 11:35:12;;;;;;;17.50;6.53;;;9.80;1.00;;;;;;5051594;28;20170;-72
2023/11/16 11:37:38;;;;;;;12.27;6.20;;;9.70;61.60;;;;;;5051248;28;20200;-72
2023/11/16 11:40:11;;;;;;;11.27;6.17;;;9.70;99.90;;;;;;5051694;28;20332;-72
2023/11/16 11:42:44;;;;;;;7.40;6.30;;;9.70;99.90;;;;;;5052192;28;20182;-72
2023/11/16 11:45:12;;;;;;;13.17;5.87;;;9.70;99.90;;;;;;5052025;28;20178;-73
2023/11/16 11:47:39;;;;;;;10.23;6.40;;;9.80;1.00;;;;;;5051312;28;20197;-72
2023/11/16 11:50:07;;;;;;;13.60;7.20;;;9.70;99.90;;;;;;5052440;28;20762;-72
2023/11/16 11:52:35;;;;;;;13.53;6.80;;;9.70;99.90;;;;;;5052828;28;20285;-72
2023/11/16 11:55:00;;;;;;;9.43;5.70;;;9.60;99.90;;;;;;5052763;28;20193;-72
2023/11/16 11:57:27;;;;;;;12.23;6.23;;;9.60;1.00;;;;;;5051735;28;20714;-72
2023/11/16 11:59:52;;;;;;;8.43;6.57;;;9.60;1.00;;;;;;5051807;28;20671;-72
2023/11/16 12:02:19;;;;;;;10.73;5.93;;;9.60;99.90;;;;;;5051317;28;20181;-73
2023/11/16 12:04:45;;;;;;;10.50;6.03;;;9.60;1.00;;;;;;5051947;28;20573;-73
2023/11/16 12:07:12;;;;;;;11.73;6.03;;;9.60;1.00;;;;;;5051517;28;20209;-73
2023/11/16 12:12:06;;;;;;;9.20;5.80;;;9.50;1.00;;;;;;5068472;28;20648;-70
2023/11/16 12:14:38;;;;;;;9.90;6.40;;;9.40;1.00;;;;;;5071253;28;20249;-70
2023/11/16 12:17:06;;;;;;;10.67;6.33;;;9.40;1.00;;;;;;5070798;28;20177;-69
2023/11/16 12:19:37;;;;;;;11.47;6.07;;;9.40;1.00;;;;;;5069654;28;20188;-70
2023/11/16 12:22:07;;;;;;;10.20;6.43;;;9.30;1.00;;;;;;5051132;28;20234;-69
2023/11/16 12:24:33;;;;;;;11.70;6.20;;;9.30;35.80;;;;;;5051931;28;20174;-70
2023/11/16 12:26:59;;;;;;;12.80;7.13;;;9.30;99.90;;;;;;5051193;28;20232;-69
2023/11/16 12:29:26;;;;;;;9.07;5.73;;;9.30;99.90;;;;;;5050810;28;20585;-70
2023/11/16 12:31:55;;;;;;;9.77;6.13;;;9.30;99.90;;;;;;5051178;28;20599;-69
2023/11/16 12:34:24;;;;;;;15.93;6.80;;;9.30;99.90;;;;;;5050712;28;20186;-70
2023/11/16 12:36:54;;;;;;;14.90;6.27;;;9.30;99.90;;;;;;5051000;28;20190;-69
2023/11/16 12:39:25;;;;;;;12.20;6.20;;;9.30;99.90;;;;;;5050700;28;20236;-70
2023/11/16 12:41:52;;;;;;;16.50;6.90;;;9.30;99.90;;;;;;5051018;28;20746;-70
2023/11/16 12:44:17;;;;;;;9.53;6.10;;;9.30;99.90;;;;;;5050606;28;20198;-70
2023/11/16 12:46:43;;;;;;;10.83;6.07;;;9.40;99.90;;;;;;5050618;28;20639;-70
2023/11/16 12:49:09;;;;;;;11.77;6.07;;;9.40;99.90;;;;;;5049986;28;20207;-69
2023/11/16 12:51:35;;;;;;;11.13;6.07;;;9.40;99.90;;;;;;5050172;28;20194;-70
2023/11/16 12:54:00;;;;;;;11.47;6.30;;;9.40;1.00;;;;;;5050653;28;20182;-69
2023/11/16 12:56:26;;;;;;;13.83;5.53;;;9.50;1.00;;;;;;5050622;28;20167;-69
2023/11/16 12:58:53;;;;;;;9.43;5.73;;;9.50;99.90;;;;;;5050446;28;20171;-70
2023/11/16 13:01:19;;;;;;;11.07;5.67;;;9.50;99.90;;;;;;5050525;28;20713;-70